createdAt,value
2022-12-27T00:01:34.378Z,100337.03
2022-12-27T00:04:01.970Z,100461.31
2022-12-27T00:06:30.253Z,100452.44
2022-12-27T00:08:58.665Z,100458.38
2022-12-27T00:11:30.135Z,100451.53
2022-12-27T00:14:07.676Z,100449.09
2022-12-27T00:16:35.413Z,100453.47
2022-12-27T00:19:03.543Z,100454.25
2022-12-27T00:21:31.402Z,100450.22
2022-12-27T00:24:00.883Z,100449.56
2022-12-27T00:26:31.002Z,100445.28
2022-12-27T00:28:59.054Z,100477.03
2022-12-27T00:31:28.505Z,100444.84
2022-12-27T00:33:58.433Z,100455.78
2022-12-27T00:36:28.728Z,100454.94
2022-12-27T00:38:58.006Z,100445.47
2022-12-27T00:41:25.639Z,100431.88
2022-12-27T00:43:53.112Z,100433.00
2022-12-27T00:46:20.845Z,100414.09
2022-12-27T00:48:48.331Z,100416.91
2022-12-27T00:51:24.366Z,100379.59
2022-12-27T00:53:53.606Z,100403.38
2022-12-27T00:56:29.811Z,100389.63
2022-12-27T00:59:00.505Z,100388.81
2022-12-27T01:01:30.633Z,100385.44
2022-12-27T01:03:59.318Z,100369.22
2022-12-27T01:06:29.719Z,100375.53
2022-12-27T01:08:57.872Z,100367.75
2022-12-27T01:11:27.167Z,100366.19
2022-12-27T01:13:59.579Z,100336.38
2022-12-27T01:16:28.717Z,100356.75
2022-12-27T01:18:56.595Z,100361.06
2022-12-27T01:21:26.152Z,100351.56
2022-12-27T01:23:53.830Z,100347.19
2022-12-27T01:26:22.892Z,100336.13
2022-12-27T01:28:52.150Z,100336.13
2022-12-27T01:31:23.078Z,100331.75
2022-12-27T01:33:55.403Z,100336.88
2022-12-27T01:36:25.063Z,100324.00
2022-12-27T01:38:52.957Z,100196.47
2022-12-27T01:41:42.012Z,100324.31
2022-12-27T01:44:40.495Z,100318.09
2022-12-27T01:47:13.693Z,100325.09
2022-12-27T01:49:46.355Z,100321.78
2022-12-27T01:52:14.966Z,100315.06
2022-12-27T01:54:43.336Z,100285.22
2022-12-27T01:57:11.349Z,100321.88
2022-12-27T01:59:39.462Z,100308.88
2022-12-27T02:02:07.268Z,100278.75
2022-12-27T02:04:36.069Z,100303.59
2022-12-27T02:07:05.589Z,100310.53
2022-12-27T02:09:55.206Z,100305.34
2022-12-27T02:12:24.384Z,100296.09
2022-12-27T02:14:52.079Z,100299.66
2022-12-27T02:17:26.565Z,100297.66
2022-12-27T02:20:17.579Z,100296.59
2022-12-27T02:23:15.729Z,100302.59
2022-12-27T02:26:35.983Z,100299.88
2022-12-27T02:29:09.421Z,100296.28
2022-12-27T02:31:51.307Z,100297.91
2022-12-27T02:34:30.836Z,100302.97
2022-12-27T02:37:03.270Z,100288.31
2022-12-27T02:39:34.994Z,100284.88
2022-12-27T02:42:22.283Z,100289.16
2022-12-27T02:45:08.596Z,100283.28
2022-12-27T02:47:55.230Z,100275.66
2022-12-27T02:50:41.140Z,100273.63
2022-12-27T02:53:31.378Z,100259.44
2022-12-27T02:56:29.338Z,100257.72
2022-12-27T02:59:15.196Z,100248.13
2022-12-27T03:02:22.659Z,100242.19
2022-12-27T03:05:11.465Z,100245.66
2022-12-27T03:07:51.881Z,100244.00
2022-12-27T03:11:01.612Z,100169.03
2022-12-27T03:13:47.445Z,100219.13
2022-12-27T03:16:19.412Z,100219.69
2022-12-27T03:18:55.398Z,100220.53
2022-12-27T03:21:50.946Z,100207.81
2022-12-27T03:24:40.137Z,100165.78
2022-12-27T03:27:21.645Z,100192.38
2022-12-27T03:30:12.426Z,100197.59
2022-12-27T03:33:07.727Z,100153.00
2022-12-27T03:35:42.272Z,100202.81
2022-12-27T03:38:13.941Z,100195.88
2022-12-27T03:41:17.065Z,100190.53
2022-12-27T03:43:45.366Z,100185.34
2022-12-27T03:46:36.877Z,100184.56
2022-12-27T03:49:11.901Z,100176.91
2022-12-27T03:51:45.346Z,100194.22
2022-12-27T03:54:26.796Z,100173.41
2022-12-27T03:56:56.847Z,100185.38
2022-12-27T03:59:26.471Z,100077.13
2022-12-27T04:01:54.099Z,100185.97
2022-12-27T04:04:21.710Z,100164.53
2022-12-27T04:06:49.763Z,100164.56
2022-12-27T04:09:35.643Z,100154.28
2022-12-27T04:12:21.907Z,100163.88
2022-12-27T04:15:08.002Z,100155.94
2022-12-27T04:17:54.104Z,100149.81
2022-12-27T04:20:40.564Z,100078.41
2022-12-27T04:23:26.806Z,100131.56
2022-12-27T04:26:12.711Z,100127.38
2022-12-27T04:28:59.940Z,100118.66
2022-12-27T04:31:45.951Z,100051.38
2022-12-27T04:34:31.649Z,100121.22
2022-12-27T04:36:59.465Z,100110.78
2022-12-27T04:39:26.734Z,100104.63
2022-12-27T04:42:12.340Z,100039.31
2022-12-27T04:45:03.206Z,100087.53
2022-12-27T04:47:51.049Z,100082.44
2022-12-27T04:50:45.302Z,100094.41
2022-12-27T04:53:34.343Z,100041.34
2022-12-27T04:56:02.181Z,100040.50
2022-12-27T04:58:30.285Z,100068.00
2022-12-27T05:01:19.030Z,100060.19
2022-12-27T05:03:50.014Z,100071.50
2022-12-27T05:06:18.003Z,100069.78
2022-12-27T05:09:04.292Z,100073.41
2022-12-27T05:11:50.019Z,100066.38
2022-12-27T05:14:17.629Z,100069.78
2022-12-27T05:16:45.313Z,100063.81
2022-12-27T05:19:14.764Z,100074.41
2022-12-27T05:22:03.447Z,100010.81
2022-12-27T05:24:50.051Z,100065.69
2022-12-27T05:27:18.036Z,100054.13
2022-12-27T05:29:46.242Z,100045.75
2022-12-27T05:32:14.082Z,100035.44
2022-12-27T05:34:42.150Z,100043.97
2022-12-27T05:37:09.811Z,100030.94
2022-12-27T05:39:37.393Z,100035.38
2022-12-27T05:42:04.948Z,100042.25
2022-12-27T05:44:32.333Z,100022.44
2022-12-27T05:46:59.812Z,99938.69
2022-12-27T05:49:27.720Z,100010.72
2022-12-27T05:51:55.306Z,99947.94
2022-12-27T05:54:22.578Z,99983.66
2022-12-27T05:56:50.763Z,100012.59
2022-12-27T05:59:18.433Z,100008.34
2022-12-27T06:01:45.943Z,100010.22
2022-12-27T06:04:13.714Z,100014.56
2022-12-27T06:06:41.079Z,100006.72
2022-12-27T06:09:08.389Z,99961.94
2022-12-27T06:11:36.019Z,100017.94
2022-12-27T06:14:03.378Z,100014.63
2022-12-27T06:16:30.630Z,100005.06
2022-12-27T06:18:58.208Z,100013.63
2022-12-27T06:21:25.647Z,100016.88
2022-12-27T06:23:53.105Z,100011.59
2022-12-27T06:26:23.581Z,99923.56
2022-12-27T06:28:52.358Z,100004.94
2022-12-27T06:31:20.797Z,100014.63
2022-12-27T06:33:51.159Z,99998.25
2022-12-27T06:36:20.992Z,100012.06
2022-12-27T06:38:48.829Z,99937.25
2022-12-27T06:41:19.004Z,99999.97
2022-12-27T06:43:47.392Z,99958.19
2022-12-27T06:46:18.380Z,99995.84
2022-12-27T06:48:47.983Z,99983.84
2022-12-27T06:51:17.203Z,99985.59
2022-12-27T06:53:47.585Z,99993.38
2022-12-27T06:56:18.288Z,99957.09
2022-12-27T06:58:50.079Z,99973.44
2022-12-27T07:01:23.739Z,99968.41
2022-12-27T07:03:53.220Z,99968.41
2022-12-27T07:06:22.399Z,99966.63
2022-12-27T07:08:51.310Z,99975.34
2022-12-27T07:11:19.907Z,99963.19
2022-12-27T07:13:50.854Z,99963.41
2022-12-27T07:16:23.079Z,99961.00
2022-12-27T07:18:50.971Z,99914.88
2022-12-27T07:21:21.650Z,99948.19
2022-12-27T07:23:49.672Z,99938.16
2022-12-27T07:26:22.722Z,99934.91
2022-12-27T07:28:53.175Z,99931.31
2022-12-27T07:31:24.163Z,99921.69
2022-12-27T07:33:52.005Z,99923.63
2022-12-27T07:36:26.542Z,99926.25
2022-12-27T07:38:54.078Z,99919.44
2022-12-27T07:41:21.378Z,99921.22
2022-12-27T07:43:48.969Z,99913.41
2022-12-27T07:46:20.007Z,99921.09
2022-12-27T07:48:48.258Z,99913.41
2022-12-27T07:51:17.797Z,99905.63
2022-12-27T07:53:47.939Z,99907.44
2022-12-27T07:56:25.816Z,99907.50
2022-12-27T07:58:56.371Z,99907.47
2022-12-27T08:01:30.109Z,99914.28
2022-12-27T08:03:57.711Z,99878.00
2022-12-27T08:06:31.647Z,99888.44
2022-12-27T08:09:01.059Z,99897.03
2022-12-27T08:11:28.622Z,99882.34
2022-12-27T08:13:56.167Z,99875.59
2022-12-27T08:16:25.558Z,99861.16
2022-12-27T08:18:53.296Z,99863.75
2022-12-27T08:21:21.166Z,99856.00
2022-12-27T08:23:48.590Z,99849.09
2022-12-27T08:26:16.052Z,99848.38
2022-12-27T08:28:43.997Z,99743.94
2022-12-27T08:31:13.034Z,99830.50
2022-12-27T08:33:42.146Z,99833.81
2022-12-27T08:36:44.796Z,99835.53
2022-12-27T08:38:59.254Z,99829.63
2022-12-27T08:41:26.791Z,99718.28
2022-12-27T08:43:54.329Z,99828.00
2022-12-27T08:46:22.147Z,99762.75
2022-12-27T08:48:51.754Z,99768.06
2022-12-27T08:51:30.261Z,99817.00
2022-12-27T08:54:00.682Z,99747.41
2022-12-27T08:56:28.264Z,99793.94
2022-12-27T08:58:55.910Z,99676.66
2022-12-27T09:01:26.516Z,99793.25
2022-12-27T09:03:54.294Z,99788.19
2022-12-27T09:06:23.934Z,99783.84
2022-12-27T09:08:52.267Z,99787.38
2022-12-27T09:11:31.090Z,99779.63
2022-12-27T09:14:00.843Z,99717.78
2022-12-27T09:16:30.053Z,99775.19
2022-12-27T09:18:59.397Z,99659.59
2022-12-27T09:21:30.136Z,99768.31
2022-12-27T09:23:58.434Z,99770.00
2022-12-27T09:26:29.009Z,99768.34
2022-12-27T09:28:57.819Z,99759.81
2022-12-27T09:31:26.071Z,99752.94
2022-12-27T09:33:54.473Z,99755.34
2022-12-27T09:36:25.136Z,99759.59
2022-12-27T09:38:53.722Z,99655.41
2022-12-27T09:45:03.783Z,99759.00
2022-12-27T09:47:56.980Z,99754.84
2022-12-27T09:50:52.648Z,99754.72
2022-12-27T09:53:39.806Z,99748.63
2022-12-27T09:56:10.637Z,99752.94
2022-12-27T09:58:52.825Z,99751.09
2022-12-27T10:01:44.803Z,99724.44
2022-12-27T10:04:14.445Z,99725.50
2022-12-27T10:06:51.060Z,99719.53
2022-12-27T10:09:55.445Z,99711.75
2022-12-27T10:12:34.646Z,99713.56
2022-12-27T10:15:23.451Z,99707.63
2022-12-27T10:18:10.210Z,99675.19
2022-12-27T10:21:09.116Z,99710.09
2022-12-27T10:23:39.027Z,99705.00
2022-12-27T10:26:15.164Z,99707.53
2022-12-27T10:28:59.505Z,99700.59
2022-12-27T10:31:28.075Z,99644.91
2022-12-27T10:33:57.276Z,99704.84
2022-12-27T10:36:28.080Z,99697.16
2022-12-27T10:38:56.230Z,99680.97
2022-12-27T10:41:41.196Z,99680.09
2022-12-27T10:44:12.266Z,99662.81
2022-12-27T10:46:42.836Z,99654.19
2022-12-27T10:49:32.752Z,99654.28
2022-12-27T10:52:15.750Z,99656.09
2022-12-27T10:54:52.532Z,99649.28
2022-12-27T10:57:33.594Z,99634.63
2022-12-27T11:00:21.501Z,99648.44
2022-12-27T11:02:53.938Z,99638.97
2022-12-27T11:05:33.563Z,99621.63
2022-12-27T11:08:19.500Z,99586.06
2022-12-27T11:10:46.802Z,99622.72
2022-12-27T11:13:19.191Z,99613.31
2022-12-27T11:16:00.040Z,99591.78
2022-12-27T11:18:27.657Z,99603.94
2022-12-27T11:20:58.022Z,99591.06
2022-12-27T11:23:36.365Z,99596.34
2022-12-27T11:26:06.708Z,99599.75
2022-12-27T11:28:40.791Z,99588.56
2022-12-27T11:31:20.045Z,99594.63
2022-12-27T11:33:50.295Z,99492.25
2022-12-27T11:36:27.729Z,99511.31
2022-12-27T11:38:56.020Z,99546.00
2022-12-27T11:41:54.899Z,99586.81
2022-12-27T11:44:34.251Z,99528.66
2022-12-27T11:47:27.138Z,99575.56
2022-12-27T11:50:06.757Z,99570.41
2022-12-27T11:52:56.705Z,99567.91
2022-12-27T11:55:24.193Z,99557.53
2022-12-27T11:58:42.370Z,99557.56
2022-12-27T12:01:44.946Z,99549.84
2022-12-27T12:04:21.634Z,99552.44
2022-12-27T12:07:00.827Z,99544.75
2022-12-27T12:09:41.014Z,99556.78
2022-12-27T12:12:23.245Z,99555.09
2022-12-27T12:15:15.038Z,99531.78
2022-12-27T12:17:45.486Z,99543.03
2022-12-27T12:20:50.356Z,99537.88
2022-12-27T12:23:36.931Z,99542.25
2022-12-27T12:26:25.535Z,99526.69
2022-12-27T12:29:17.701Z,99528.53
2022-12-27T12:32:10.599Z,99532.84
2022-12-27T12:34:52.994Z,99531.16
2022-12-27T12:37:47.637Z,99532.03
2022-12-27T12:40:33.266Z,99519.19
2022-12-27T12:43:36.018Z,99513.16
2022-12-27T12:46:05.386Z,99520.06
2022-12-27T12:48:52.393Z,99519.28
2022-12-27T12:51:38.163Z,99506.19
2022-12-27T12:54:12.143Z,99504.56
2022-12-27T12:56:54.527Z,99501.13
2022-12-27T12:59:31.309Z,99495.97
2022-12-27T13:02:08.627Z,99498.63
2022-12-27T13:04:58.690Z,99496.00
2022-12-27T13:08:07.752Z,99482.25
2022-12-27T13:11:07.489Z,99481.34
2022-12-27T13:13:43.475Z,99486.59
2022-12-27T13:16:11.161Z,99474.56
2022-12-27T13:18:54.282Z,99471.16
2022-12-27T13:21:55.445Z,99473.72
2022-12-27T13:24:46.324Z,99472.03
2022-12-27T13:27:52.285Z,99471.19
2022-12-27T13:30:22.987Z,99466.91
2022-12-27T13:33:06.288Z,99467.78
2022-12-27T13:35:53.152Z,99466.06
2022-12-27T13:38:26.835Z,99465.97
2022-12-27T13:41:30.428Z,99454.06
2022-12-27T13:44:40.237Z,99460.06
2022-12-27T13:47:44.574Z,99451.44
2022-12-27T13:51:03.591Z,99459.25
2022-12-27T13:53:54.455Z,99453.22
2022-12-27T13:56:53.445Z,99448.97
2022-12-27T13:59:37.238Z,99442.97
2022-12-27T14:02:17.369Z,99442.97
2022-12-27T14:05:26.420Z,99449.03
2022-12-27T14:08:21.209Z,99444.72
2022-12-27T14:10:53.927Z,99439.63
2022-12-27T14:13:33.708Z,99443.06
2022-12-27T14:16:13.777Z,99443.06
2022-12-27T14:18:53.202Z,99430.19
2022-12-27T14:21:43.526Z,99440.56
2022-12-27T14:24:18.141Z,99425.09
2022-12-27T14:26:54.927Z,99425.16
2022-12-27T14:29:31.472Z,99419.97
2022-12-27T14:32:20.633Z,99422.56
2022-12-27T14:35:00.143Z,99416.56
2022-12-27T14:37:53.660Z,99414.75
2022-12-27T14:40:49.664Z,99411.31
2022-12-27T14:43:35.176Z,99415.66
2022-12-27T14:46:32.556Z,99408.78
2022-12-27T14:49:19.627Z,99338.66
2022-12-27T14:52:12.058Z,99403.53
2022-12-27T14:55:17.370Z,99401.00
2022-12-27T14:58:19.864Z,99401.91
2022-12-27T15:01:10.739Z,99392.41
2022-12-27T15:03:44.570Z,99388.16
2022-12-27T15:06:19.002Z,99389.88
2022-12-27T15:09:02.496Z,99337.97
2022-12-27T15:11:45.086Z,99388.19
2022-12-27T15:14:29.344Z,99382.16
2022-12-27T15:17:17.673Z,99378.72
2022-12-27T15:19:51.285Z,99383.06
2022-12-27T15:22:27.821Z,99385.63
2022-12-27T15:25:07.288Z,99376.09
2022-12-27T15:27:47.326Z,99378.75
2022-12-27T15:30:20.676Z,99371.84
2022-12-27T15:33:15.485Z,99310.47
2022-12-27T15:35:50.161Z,99357.22
2022-12-27T15:38:38.945Z,99364.16
2022-12-27T15:41:09.592Z,99362.47
2022-12-27T15:43:39.611Z,99359.00
2022-12-27T15:46:17.852Z,99357.28
2022-12-27T15:49:19.106Z,99362.47
2022-12-27T15:52:21.974Z,99350.38
2022-12-27T15:54:55.242Z,99349.53
2022-12-27T15:57:59.310Z,99349.56
2022-12-27T16:00:33.580Z,99276.06
2022-12-27T16:03:03.871Z,99334.91
2022-12-27T16:05:40.494Z,99328.03
2022-12-27T16:08:07.936Z,99327.97
2022-12-27T16:10:41.483Z,99325.41
2022-12-27T16:13:11.825Z,99319.38
2022-12-27T16:15:45.441Z,99314.22
2022-12-27T16:18:21.986Z,99322.00
2022-12-27T16:21:14.788Z,99234.66
2022-12-27T16:23:50.427Z,99313.38
2022-12-27T16:26:20.353Z,99316.84
2022-12-27T16:29:01.538Z,99210.47
2022-12-27T16:31:31.919Z,99310.81
2022-12-27T16:34:30.639Z,99313.41
2022-12-27T16:37:00.742Z,99290.94
2022-12-27T16:39:49.895Z,99298.72
2022-12-27T16:42:27.168Z,99280.59
2022-12-27T16:45:43.129Z,99277.13
2022-12-27T16:48:44.231Z,99287.53
2022-12-27T16:51:41.073Z,99275.44
2022-12-27T16:54:37.309Z,99265.94
2022-12-27T16:57:26.700Z,99278.03
2022-12-27T17:00:22.839Z,99268.53
2022-12-27T17:02:51.002Z,99262.50
2022-12-27T17:05:24.675Z,99258.19
2022-12-27T17:07:57.796Z,99258.19
2022-12-27T17:10:28.215Z,99254.75
2022-12-27T17:13:11.211Z,99259.06
2022-12-27T17:15:50.088Z,99261.66
2022-12-27T17:18:33.988Z,99258.22
2022-12-27T17:21:06.613Z,99246.97
2022-12-27T17:23:46.728Z,99250.44
2022-12-27T17:26:39.529Z,99237.50
2022-12-27T17:29:31.759Z,99240.94
2022-12-27T17:32:30.727Z,99236.59
2022-12-27T17:35:03.826Z,99234.03
2022-12-27T17:38:15.240Z,99223.66
2022-12-27T17:41:13.497Z,99231.44
2022-12-27T17:44:19.427Z,99216.75
2022-12-27T17:46:57.660Z,99215.88
2022-12-27T17:49:31.323Z,99097.59
2022-12-27T17:52:22.764Z,99168.41
2022-12-27T17:55:08.675Z,99206.38
2022-12-27T17:57:54.316Z,99196.88
2022-12-27T18:00:25.056Z,99191.69
2022-12-27T18:02:55.255Z,99186.53
2022-12-27T18:05:34.004Z,99192.56
2022-12-27T18:08:04.759Z,99201.22
2022-12-27T18:10:34.546Z,99156.31
2022-12-27T18:13:05.052Z,99187.41
2022-12-27T18:15:36.440Z,99193.44
2022-12-27T18:18:07.709Z,99189.09
2022-12-27T18:20:37.984Z,99183.03
2022-12-27T18:23:06.299Z,99189.09
2022-12-27T18:25:41.310Z,99191.69
2022-12-27T18:28:33.103Z,99181.31
2022-12-27T18:31:26.798Z,99180.47
2022-12-27T18:33:59.753Z,99172.66
2022-12-27T18:36:33.606Z,99172.66
2022-12-27T18:39:02.643Z,99166.63
2022-12-27T18:41:42.837Z,99154.53
2022-12-27T18:44:26.493Z,99151.06
2022-12-27T18:46:56.950Z,99152.78
2022-12-27T18:49:28.190Z,99152.78
2022-12-27T18:51:56.025Z,99094.94
2022-12-27T18:54:29.473Z,99147.59
2022-12-27T18:56:58.640Z,99110.47
2022-12-27T18:59:31.483Z,99150.13
2022-12-27T19:02:01.859Z,99136.31
2022-12-27T19:04:32.239Z,99131.13
2022-12-27T19:07:14.608Z,99142.38
2022-12-27T19:09:49.156Z,99131.09
2022-12-27T19:12:23.033Z,99132.81
2022-12-27T19:14:51.257Z,99132.84
2022-12-27T19:17:23.878Z,99128.53
2022-12-27T19:19:58.434Z,99132.84
2022-12-27T19:22:51.749Z,99135.44
2022-12-27T19:25:29.707Z,99130.22
2022-12-27T19:28:01.963Z,99127.63
2022-12-27T19:30:38.260Z,99124.19
2022-12-27T19:33:28.315Z,99128.47
2022-12-27T19:35:57.657Z,99106.00
2022-12-27T19:38:30.301Z,99015.50
2022-12-27T19:41:03.759Z,99108.56
2022-12-27T19:43:38.621Z,99108.63
2022-12-27T19:46:06.361Z,99047.34
2022-12-27T19:48:34.004Z,99100.78
2022-12-27T19:51:01.337Z,99109.38
2022-12-27T19:53:33.461Z,99106.81
2022-12-27T19:56:03.098Z,99101.63
2022-12-27T19:58:31.228Z,99095.56
2022-12-27T20:00:59.210Z,99092.13
2022-12-27T20:03:27.584Z,99095.56
2022-12-27T20:06:12.866Z,99094.66
2022-12-27T20:08:46.036Z,99088.63
2022-12-27T20:11:18.481Z,99082.56
2022-12-27T20:13:46.237Z,99089.47
2022-12-27T20:16:17.468Z,99085.16
2022-12-27T20:18:45.255Z,99081.69
2022-12-27T20:21:14.186Z,99079.09
2022-12-27T20:23:42.325Z,99075.63
2022-12-27T20:26:10.963Z,99081.66
2022-12-27T20:28:38.616Z,99079.94
2022-12-27T20:31:08.012Z,99067.81
2022-12-27T20:33:35.779Z,99077.28
2022-12-27T20:36:03.915Z,99073.81
2022-12-27T20:38:31.744Z,99066.03
2022-12-27T20:41:14.033Z,99060.88
2022-12-27T20:43:41.698Z,99056.53
2022-12-27T20:46:14.703Z,99051.34
2022-12-27T20:48:44.208Z,99054.81
2022-12-27T20:51:15.338Z,99053.94
2022-12-27T20:53:44.485Z,99053.09
2022-12-27T20:56:13.152Z,99052.19
2022-12-27T20:58:40.705Z,98990.16
2022-12-27T21:01:12.755Z,98999.59
2022-12-27T21:03:40.934Z,99045.25
2022-12-27T21:06:10.746Z,98977.19
2022-12-27T21:08:46.493Z,99035.75
2022-12-27T21:11:18.934Z,99045.25
2022-12-27T21:13:47.942Z,99039.19
2022-12-27T21:16:20.801Z,99037.44
2022-12-27T21:18:48.870Z,98990.06
2022-12-27T21:21:21.892Z,99028.81
2022-12-27T21:23:51.593Z,99032.25
2022-12-27T21:26:22.873Z,99027.94
2022-12-27T21:28:50.903Z,98994.31
2022-12-27T21:31:19.013Z,99027.03
2022-12-27T21:33:47.678Z,98971.06
2022-12-27T21:36:18.238Z,99014.06
2022-12-27T21:38:46.157Z,98959.78
2022-12-27T21:41:40.289Z,99008.88
2022-12-27T21:44:07.903Z,99011.41
2022-12-27T21:46:40.419Z,99006.25
2022-12-27T21:49:10.907Z,98988.19
2022-12-27T21:51:39.543Z,98950.22
2022-12-27T21:54:07.685Z,99005.34
2022-12-27T21:56:35.395Z,98991.63
2022-12-27T21:59:05.644Z,98957.09
2022-12-27T22:01:50.124Z,98999.28
2022-12-27T22:04:20.118Z,98998.44
2022-12-27T22:06:48.055Z,98992.38
2022-12-27T22:09:16.140Z,98999.25
2022-12-27T22:11:44.060Z,98987.13
2022-12-27T22:14:11.650Z,98988.84
2022-12-27T22:16:40.109Z,98982.75
2022-12-27T22:19:10.552Z,98980.16
2022-12-27T22:21:39.402Z,98974.09
2022-12-27T22:24:07.445Z,98971.47
2022-12-27T22:26:37.543Z,98974.03
2022-12-27T22:29:06.427Z,98970.59
2022-12-27T22:31:36.766Z,98966.25
2022-12-27T22:34:05.657Z,98967.97
2022-12-27T22:36:33.759Z,98859.59
2022-12-27T22:39:02.317Z,98969.69
2022-12-27T22:41:35.013Z,98963.66
2022-12-27T22:44:13.934Z,98929.31
2022-12-27T22:49:30.411Z,98868.13
2022-12-27T22:51:57.664Z,98962.78
2022-12-27T22:55:05.958Z,98950.63
2022-12-27T22:57:12.635Z,98950.69
2022-12-27T22:59:40.271Z,98952.38
2022-12-27T23:02:07.823Z,98954.97
2022-12-27T23:04:35.432Z,98951.53
2022-12-27T23:07:02.836Z,98955.84
2022-12-27T23:09:30.282Z,98961.91
2022-12-27T23:11:58.215Z,98943.72
2022-12-27T23:14:25.788Z,98940.22
2022-12-27T23:16:53.399Z,98946.22
2022-12-27T23:19:22.299Z,98948.84
2022-12-27T23:21:50.292Z,98938.50
2022-12-27T23:24:17.595Z,98949.72
2022-12-27T23:26:44.953Z,98916.16
2022-12-27T23:29:13.801Z,98942.81
2022-12-27T23:31:55.364Z,98938.47
2022-12-27T23:34:29.375Z,98934.16
2022-12-27T23:36:58.609Z,98932.41
2022-12-27T23:39:26.639Z,98932.41
2022-12-27T23:41:54.615Z,98874.00
2022-12-27T23:44:33.409Z,98877.34
2022-12-27T23:47:05.894Z,98930.69
2022-12-27T23:49:34.084Z,98928.09
2022-12-27T23:52:01.702Z,98934.13
2022-12-27T23:54:29.286Z,98928.00
2022-12-27T23:56:56.776Z,98923.69
2022-12-27T23:59:24.785Z,98940.13
